Luz De Mar — ECIJ — position and weather

sailwx.info

Track history (hours):
 
Tides and Currents Weather Stations Pressure Air Temp Water Temp Dewpoint Dewpoint Depression Visibility Wind Speed Wind Dir Waves Ship Positions

Luz De Mar

Last reported at 2017-Jun-24 20:38 UTC. Time now 2017-Jun-25 03:44 UTC.
Position N 36°08' W 005°26'.

Length 56 m; draft 6.7 m.

Type: SAR. MMSI: 224311000.

Date/timePositionNaut miles runAvg speedWind from/ knotsBaromVisibWave heightAir tempDewpointWater temp
2017-Jun-24 20:38N 36°08' W 005°26'0 0.1
2017-Jun-24 20:29N 36°08' W 005°26'0 0.0
2017-Jun-24 19:56N 36°08' W 005°26'0 0.0
2017-Jun-24 19:26N 36°08' W 005°26'0 0.0
2017-Jun-24 06:08N 36°08' W 005°26'0 0.0
2017-Jun-24 05:56N 36°08' W 005°26'0 0.0
2017-Jun-24 05:29N 36°08' W 005°26'0 0.0
2017-Jun-24 04:50N 36°08' W 005°26'0 0.0
2017-Jun-24 04:26N 36°08' W 005°26'0 0.0
2017-Jun-24 03:14N 36°08' W 005°26'0 0.0
2017-Jun-24 02:08N 36°08' W 005°26'0 0.0
2017-Jun-24 01:50N 36°08' W 005°26'0 0.0
2017-Jun-24 01:26N 36°08' W 005°26'0 0.0
2017-Jun-24 00:20N 36°08' W 005°26'0 0.0
2017-Jun-23 23:56N 36°08' W 005°26'0 0.0
2017-Jun-23 23:26N 36°08' W 005°26'0 0.0
2017-Jun-23 21:37N 36°08' W 005°26'0 0.0
2017-Jun-23 21:26N 36°08' W 005°26'0 0.0
2017-Jun-23 20:59N 36°08' W 005°26'0 0.0
2017-Jun-23 20:29N 36°08' W 005°26'0 0.0
2017-Jun-23 19:44N 36°08' W 005°26'0 0.0
2017-Jun-23 19:26N 36°08' W 005°26'0 0.0
2017-Jun-23 17:54N 36°08' W 005°26'0 0.0
2017-Jun-23 16:10N 36°08' W 005°26'0 0.0
2017-Jun-23 15:56N 36°08' W 005°26'0 0.0
2017-Jun-23 15:28N 36°08' W 005°26'0 0.0
2017-Jun-23 15:00N 36°08' W 005°26'0 0.0
2017-Jun-23 13:56N 36°08' W 005°26'  
2017-Jun-18 10:57N 36°08' W 005°26'2 4.9
2017-Jun-18 10:30N 36°10' W 005°24'6 4.6
2017-Jun-18 09:06N 36°03' W 005°24'1 7.1
2017-Jun-18 08:54N 36°02' W 005°23'3 6.7
2017-Jun-18 08:30N 35°60' W 005°22'3 6.9
2017-Jun-18 08:00N 35°57' W 005°20'3 6.4
2017-Jun-18 07:30N 35°54' W 005°19'0 0.6
2017-Jun-18 07:00N 35°54' W 005°19'0 0.0
2017-Jun-18 06:30N 35°54' W 005°19'0 0.0
2017-Jun-18 06:00N 35°54' W 005°19'0 0.0
2017-Jun-18 05:30N 35°54' W 005°19'0 0.0
2017-Jun-18 05:00N 35°54' W 005°19'0 0.0
2017-Jun-18 04:30N 35°54' W 005°19'0 0.0
2017-Jun-18 04:00N 35°54' W 005°19'0 0.0
2017-Jun-18 03:30N 35°54' W 005°19'0 0.0
2017-Jun-18 03:00N 35°54' W 005°19'0 0.0
2017-Jun-18 02:30N 35°54' W 005°19'0 0.0
2017-Jun-18 02:00N 35°54' W 005°19'0 0.0
2017-Jun-18 01:30N 35°54' W 005°19'0 0.0
2017-Jun-18 01:00N 35°54' W 005°19'0 0.0
2017-Jun-18 00:30N 35°54' W 005°19'0 0.0
2017-Jun-18 00:00N 35°54' W 005°19'0 0.0
2017-Jun-17 23:30N 35°54' W 005°19'0 0.0
2017-Jun-17 23:00N 35°54' W 005°19'0 0.0
2017-Jun-17 22:30N 35°54' W 005°19'0 0.0
2017-Jun-17 22:00N 35°54' W 005°19'0 0.0
2017-Jun-17 21:30N 35°54' W 005°19'0 0.0
2017-Jun-17 21:00N 35°54' W 005°19'0 0.0
2017-Jun-17 20:30N 35°54' W 005°19'0 0.0
2017-Jun-17 20:00N 35°54' W 005°19'0 0.0
2017-Jun-17 19:27N 35°54' W 005°19'0 0.0
2017-Jun-17 19:00N 35°54' W 005°19'0 0.0
2017-Jun-17 18:30N 35°54' W 005°19'0 0.0
2017-Jun-17 18:00N 35°54' W 005°19'0 0.0
2017-Jun-17 17:30N 35°54' W 005°19'0 0.0
2017-Jun-17 17:00N 35°54' W 005°19'0 0.0
2017-Jun-17 16:30N 35°54' W 005°19'0 0.0
2017-Jun-17 16:00N 35°54' W 005°19'0 0.0
2017-Jun-17 15:30N 35°54' W 005°19'0 0.0
2017-Jun-17 15:00N 35°54' W 005°19'0 0.0
2017-Jun-17 14:30N 35°54' W 005°19'0 0.0
2017-Jun-17 13:30N 35°54' W 005°19'0 0.0
2017-Jun-17 13:00N 35°54' W 005°19'0 0.0
2017-Jun-17 12:30N 35°54' W 005°19'0 0.0
2017-Jun-17 12:00N 35°54' W 005°19'0 0.0
2017-Jun-17 11:30N 35°54' W 005°19'0 0.0
2017-Jun-17 11:00N 35°54' W 005°19'0 0.0
2017-Jun-17 10:30N 35°54' W 005°19'0 0.0
2017-Jun-17 10:00N 35°54' W 005°19'0 0.0
2017-Jun-17 09:30N 35°54' W 005°19'0 0.0
2017-Jun-17 09:00N 35°54' W 005°19'0 0.0
2017-Jun-17 08:30N 35°54' W 005°19'0 0.0
2017-Jun-17 08:00N 35°54' W 005°19'0 0.0
2017-Jun-17 07:30N 35°54' W 005°19'0 0.0
2017-Jun-17 07:00N 35°54' W 005°19'0 0.0
2017-Jun-17 06:30N 35°54' W 005°19'0 0.0
2017-Jun-17 06:00N 35°54' W 005°19'0 0.0
2017-Jun-17 05:30N 35°54' W 005°19'0 0.0
2017-Jun-17 05:00N 35°54' W 005°19'0 0.0
2017-Jun-17 04:30N 35°54' W 005°19'0 0.0
2017-Jun-17 04:00N 35°54' W 005°19'0 0.0
2017-Jun-17 03:30N 35°54' W 005°19'0 0.0
2017-Jun-17 03:00N 35°54' W 005°19'0 0.0
2017-Jun-17 02:30N 35°54' W 005°19'0 0.0
2017-Jun-17 02:00N 35°54' W 005°19'0 0.0
2017-Jun-17 01:30N 35°54' W 005°19'0 0.0
2017-Jun-17 01:00N 35°54' W 005°19'0 0.0
2017-Jun-17 00:30N 35°54' W 005°19'0 0.0
2017-Jun-17 00:00N 35°54' W 005°19'0 0.0
2017-Jun-16 23:30N 35°54' W 005°19'0 0.0
2017-Jun-16 23:00N 35°54' W 005°19'0 0.0
2017-Jun-16 22:30N 35°54' W 005°19'0 0.0
2017-Jun-16 21:54N 35°54' W 005°19'0 0.0
2017-Jun-16 21:30N 35°54' W 005°19'0 0.0
2017-Jun-16 21:00N 35°54' W 005°19'0 0.0
2017-Jun-16 20:30N 35°54' W 005°19'0 0.0
2017-Jun-16 20:00N 35°54' W 005°19'0 0.0
2017-Jun-16 19:30N 35°54' W 005°19'0 0.0
2017-Jun-16 19:00N 35°54' W 005°19'0 0.0
2017-Jun-16 18:30N 35°54' W 005°19'0 0.0
2017-Jun-16 18:00N 35°54' W 005°19'0 0.0
2017-Jun-16 17:30N 35°54' W 005°19'0 0.0
2017-Jun-16 16:57N 35°54' W 005°19'0 0.0
2017-Jun-16 16:30N 35°54' W 005°19'0 0.0
2017-Jun-16 16:00N 35°54' W 005°19'0 0.0
2017-Jun-16 15:30N 35°54' W 005°19'0 0.0
2017-Jun-16 15:00N 35°54' W 005°19'0 0.0
2017-Jun-16 14:30N 35°54' W 005°19'0 0.0
2017-Jun-16 13:30N 35°54' W 005°19'0 0.0
2017-Jun-16 13:00N 35°54' W 005°19'0 0.0
2017-Jun-16 12:30N 35°54' W 005°19'0 0.0
2017-Jun-16 12:00N 35°54' W 005°19'0 0.0
2017-Jun-16 11:30N 35°54' W 005°19'0 0.0
2017-Jun-16 10:57N 35°54' W 005°19'0 0.0
2017-Jun-16 10:30N 35°54' W 005°19'0 0.0
2017-Jun-16 10:00N 35°54' W 005°19'0 0.0
2017-Jun-16 09:30N 35°54' W 005°19'0 0.0
2017-Jun-16 09:00N 35°54' W 005°19'0 0.0
2017-Jun-16 08:30N 35°54' W 005°19'0 0.0
2017-Jun-16 08:00N 35°54' W 005°19'0 0.0
2017-Jun-16 07:30N 35°54' W 005°19'0 0.0
2017-Jun-16 07:00N 35°54' W 005°19'0 0.0
2017-Jun-16 06:30N 35°54' W 005°19'0 0.0
2017-Jun-16 06:00N 35°54' W 005°19'0 1.0
2017-Jun-16 05:29N 35°54' W 005°19'0 0.0
2017-Jun-16 04:59N 35°54' W 005°19'0 0.0
2017-Jun-16 04:29N 35°54' W 005°19'0 0.0
2017-Jun-16 03:59N 35°54' W 005°19'0 0.0
2017-Jun-16 03:29N 35°54' W 005°19'0 0.0
2017-Jun-16 02:59N 35°54' W 005°19'0 0.0
2017-Jun-16 02:29N 35°54' W 005°19'0 0.0
2017-Jun-16 01:59N 35°54' W 005°19'0 0.0
2017-Jun-16 01:29N 35°54' W 005°19'0 0.0
2017-Jun-16 00:59N 35°54' W 005°19'0 0.0
2017-Jun-16 00:29N 35°54' W 005°19'0 0.0
2017-Jun-15 23:59N 35°54' W 005°19'0 0.0
2017-Jun-15 23:29N 35°54' W 005°19'0 0.0
2017-Jun-15 22:59N 35°54' W 005°19'0 0.0
2017-Jun-15 22:29N 35°54' W 005°19'0 0.0
2017-Jun-15 21:59N 35°54' W 005°19'0 0.0
2017-Jun-15 21:29N 35°54' W 005°19'0 0.0
2017-Jun-15 20:59N 35°54' W 005°19'0 0.0
2017-Jun-15 20:29N 35°54' W 005°19'0 0.0
2017-Jun-15 19:59N 35°54' W 005°19'0 0.0
2017-Jun-15 19:29N 35°54' W 005°19'0 0.0
2017-Jun-15 18:59N 35°54' W 005°19'0 0.0
2017-Jun-15 18:29N 35°54' W 005°19'0 0.0
2017-Jun-15 17:59N 35°54' W 005°19'0 0.0
2017-Jun-15 17:29N 35°54' W 005°19'0 0.0
2017-Jun-15 16:59N 35°54' W 005°19'0 0.0
2017-Jun-15 16:29N 35°54' W 005°19'0 0.0
2017-Jun-15 15:59N 35°54' W 005°19'0 0.0
2017-Jun-15 15:29N 35°54' W 005°19'0 0.0
2017-Jun-15 14:59N 35°54' W 005°19'0 0.0
2017-Jun-15 13:59N 35°54' W 005°19'0 0.0
2017-Jun-15 13:29N 35°54' W 005°19'0 0.0
2017-Jun-15 12:59N 35°54' W 005°19'0 0.0
2017-Jun-15 12:29N 35°54' W 005°19'0 0.0
2017-Jun-15 11:59N 35°54' W 005°19'0 0.0
2017-Jun-15 11:29N 35°54' W 005°19'0 0.0
2017-Jun-15 10:59N 35°54' W 005°19'0 0.0
2017-Jun-15 10:29N 35°54' W 005°19'0 0.0
2017-Jun-15 09:59N 35°54' W 005°19'0 0.0
2017-Jun-15 09:26N 35°54' W 005°19'0 0.0
2017-Jun-15 08:59N 35°54' W 005°19'0 0.0
2017-Jun-15 08:29N 35°54' W 005°19'0 0.0
2017-Jun-15 07:59N 35°54' W 005°19'0 0.0
2017-Jun-15 07:29N 35°54' W 005°19'0 0.0
2017-Jun-15 06:59N 35°54' W 005°19'0 0.0
2017-Jun-15 06:29N 35°54' W 005°19'0 0.0
2017-Jun-15 05:59N 35°54' W 005°19'0 0.0
2017-Jun-15 05:29N 35°54' W 005°19'0 0.0
2017-Jun-15 04:59N 35°54' W 005°19'0 0.0
2017-Jun-15 04:29N 35°54' W 005°19'0 0.0
2017-Jun-15 03:59N 35°54' W 005°19'0 0.0
2017-Jun-15 03:29N 35°54' W 005°19'0 0.0
2017-Jun-15 02:59N 35°54' W 005°19'0 0.0
2017-Jun-15 02:29N 35°54' W 005°19'0 0.0
2017-Jun-15 01:59N 35°54' W 005°19'0 0.0
2017-Jun-15 01:29N 35°54' W 005°19'0 0.0
2017-Jun-15 00:59N 35°54' W 005°19'0 0.0
2017-Jun-15 00:29N 35°54' W 005°19'0 0.0
2017-Jun-14 23:56N 35°54' W 005°19'0 0.0
2017-Jun-14 23:29N 35°54' W 005°19'0 0.0
2017-Jun-14 22:59N 35°54' W 005°19'0 0.0
2017-Jun-14 22:29N 35°54' W 005°19'0 0.0
2017-Jun-14 21:59N 35°54' W 005°19'0 0.0
2017-Jun-14 21:29N 35°54' W 005°19'0 0.0
2017-Jun-14 20:59N 35°54' W 005°19'  
Track history (hours):
 
Tides and Currents Weather Stations Pressure Air Temp Water Temp Dewpoint Dewpoint Depression Visibility Wind Speed Wind Dir Waves Ship Positions

Luz De Mar

Last reported at 2017-Jun-24 20:38 UTC. Time now 2017-Jun-25 03:44 UTC.
Position N 36°08' W 005°26'.

Length 56 m; draft 6.7 m.

Type: SAR. MMSI: 224311000.

Date/timePositionNaut miles runAvg speedWind from/ knotsBaromVisibWave heightAir tempDewpointWater temp
2017-Jun-24 20:38N 36°08' W 005°26'0 0.1
2017-Jun-24 20:29N 36°08' W 005°26'0 0.0
2017-Jun-24 19:56N 36°08' W 005°26'0 0.0
2017-Jun-24 19:26N 36°08' W 005°26'0 0.0
2017-Jun-24 06:08N 36°08' W 005°26'0 0.0
2017-Jun-24 05:56N 36°08' W 005°26'0 0.0
2017-Jun-24 05:29N 36°08' W 005°26'0 0.0
2017-Jun-24 04:50N 36°08' W 005°26'0 0.0
2017-Jun-24 04:26N 36°08' W 005°26'0 0.0
2017-Jun-24 03:14N 36°08' W 005°26'0 0.0
2017-Jun-24 02:08N 36°08' W 005°26'0 0.0
2017-Jun-24 01:50N 36°08' W 005°26'0 0.0
2017-Jun-24 01:26N 36°08' W 005°26'0 0.0
2017-Jun-24 00:20N 36°08' W 005°26'0 0.0
2017-Jun-23 23:56N 36°08' W 005°26'0 0.0
2017-Jun-23 23:26N 36°08' W 005°26'0 0.0
2017-Jun-23 21:37N 36°08' W 005°26'0 0.0
2017-Jun-23 21:26N 36°08' W 005°26'0 0.0
2017-Jun-23 20:59N 36°08' W 005°26'0 0.0
2017-Jun-23 20:29N 36°08' W 005°26'0 0.0
2017-Jun-23 19:44N 36°08' W 005°26'0 0.0
2017-Jun-23 19:26N 36°08' W 005°26'0 0.0
2017-Jun-23 17:54N 36°08' W 005°26'0 0.0
2017-Jun-23 16:10N 36°08' W 005°26'0 0.0
2017-Jun-23 15:56N 36°08' W 005°26'0 0.0
2017-Jun-23 15:28N 36°08' W 005°26'0 0.0
2017-Jun-23 15:00N 36°08' W 005°26'0 0.0
2017-Jun-23 13:56N 36°08' W 005°26'  
2017-Jun-18 10:57N 36°08' W 005°26'2 4.9
2017-Jun-18 10:30N 36°10' W 005°24'6 4.6
2017-Jun-18 09:06N 36°03' W 005°24'1 7.1
2017-Jun-18 08:54N 36°02' W 005°23'3 6.7
2017-Jun-18 08:30N 35°60' W 005°22'3 6.9
2017-Jun-18 08:00N 35°57' W 005°20'3 6.4
2017-Jun-18 07:30N 35°54' W 005°19'0 0.6
2017-Jun-18 07:00N 35°54' W 005°19'0 0.0
2017-Jun-18 06:30N 35°54' W 005°19'0 0.0
2017-Jun-18 06:00N 35°54' W 005°19'0 0.0
2017-Jun-18 05:30N 35°54' W 005°19'0 0.0
2017-Jun-18 05:00N 35°54' W 005°19'0 0.0
2017-Jun-18 04:30N 35°54' W 005°19'0 0.0
2017-Jun-18 04:00N 35°54' W 005°19'0 0.0
2017-Jun-18 03:30N 35°54' W 005°19'0 0.0
2017-Jun-18 03:00N 35°54' W 005°19'0 0.0
2017-Jun-18 02:30N 35°54' W 005°19'0 0.0
2017-Jun-18 02:00N 35°54' W 005°19'0 0.0
2017-Jun-18 01:30N 35°54' W 005°19'0 0.0
2017-Jun-18 01:00N 35°54' W 005°19'0 0.0
2017-Jun-18 00:30N 35°54' W 005°19'0 0.0
2017-Jun-18 00:00N 35°54' W 005°19'0 0.0
2017-Jun-17 23:30N 35°54' W 005°19'0 0.0
2017-Jun-17 23:00N 35°54' W 005°19'0 0.0
2017-Jun-17 22:30N 35°54' W 005°19'0 0.0
2017-Jun-17 22:00N 35°54' W 005°19'0 0.0
2017-Jun-17 21:30N 35°54' W 005°19'0 0.0
2017-Jun-17 21:00N 35°54' W 005°19'0 0.0
2017-Jun-17 20:30N 35°54' W 005°19'0 0.0
2017-Jun-17 20:00N 35°54' W 005°19'0 0.0
2017-Jun-17 19:27N 35°54' W 005°19'0 0.0
2017-Jun-17 19:00N 35°54' W 005°19'0 0.0
2017-Jun-17 18:30N 35°54' W 005°19'0 0.0
2017-Jun-17 18:00N 35°54' W 005°19'0 0.0
2017-Jun-17 17:30N 35°54' W 005°19'0 0.0
2017-Jun-17 17:00N 35°54' W 005°19'0 0.0
2017-Jun-17 16:30N 35°54' W 005°19'0 0.0
2017-Jun-17 16:00N 35°54' W 005°19'0 0.0
2017-Jun-17 15:30N 35°54' W 005°19'0 0.0
2017-Jun-17 15:00N 35°54' W 005°19'0 0.0
2017-Jun-17 14:30N 35°54' W 005°19'0 0.0
2017-Jun-17 13:30N 35°54' W 005°19'0 0.0
2017-Jun-17 13:00N 35°54' W 005°19'0 0.0
2017-Jun-17 12:30N 35°54' W 005°19'0 0.0
2017-Jun-17 12:00N 35°54' W 005°19'0 0.0
2017-Jun-17 11:30N 35°54' W 005°19'0 0.0
2017-Jun-17 11:00N 35°54' W 005°19'0 0.0
2017-Jun-17 10:30N 35°54' W 005°19'0 0.0
2017-Jun-17 10:00N 35°54' W 005°19'0 0.0
2017-Jun-17 09:30N 35°54' W 005°19'0 0.0
2017-Jun-17 09:00N 35°54' W 005°19'0 0.0
2017-Jun-17 08:30N 35°54' W 005°19'0 0.0
2017-Jun-17 08:00N 35°54' W 005°19'0 0.0
2017-Jun-17 07:30N 35°54' W 005°19'0 0.0
2017-Jun-17 07:00N 35°54' W 005°19'0 0.0
2017-Jun-17 06:30N 35°54' W 005°19'0 0.0
2017-Jun-17 06:00N 35°54' W 005°19'0 0.0
2017-Jun-17 05:30N 35°54' W 005°19'0 0.0
2017-Jun-17 05:00N 35°54' W 005°19'0 0.0
2017-Jun-17 04:30N 35°54' W 005°19'0 0.0
2017-Jun-17 04:00N 35°54' W 005°19'0 0.0
2017-Jun-17 03:30N 35°54' W 005°19'0 0.0
2017-Jun-17 03:00N 35°54' W 005°19'0 0.0
2017-Jun-17 02:30N 35°54' W 005°19'0 0.0
2017-Jun-17 02:00N 35°54' W 005°19'0 0.0
2017-Jun-17 01:30N 35°54' W 005°19'0 0.0
2017-Jun-17 01:00N 35°54' W 005°19'0 0.0
2017-Jun-17 00:30N 35°54' W 005°19'0 0.0
2017-Jun-17 00:00N 35°54' W 005°19'0 0.0
2017-Jun-16 23:30N 35°54' W 005°19'0 0.0
2017-Jun-16 23:00N 35°54' W 005°19'0 0.0
2017-Jun-16 22:30N 35°54' W 005°19'0 0.0
2017-Jun-16 21:54N 35°54' W 005°19'0 0.0
2017-Jun-16 21:30N 35°54' W 005°19'0 0.0
2017-Jun-16 21:00N 35°54' W 005°19'0 0.0
2017-Jun-16 20:30N 35°54' W 005°19'0 0.0
2017-Jun-16 20:00N 35°54' W 005°19'0 0.0
2017-Jun-16 19:30N 35°54' W 005°19'0 0.0
2017-Jun-16 19:00N 35°54' W 005°19'0 0.0
2017-Jun-16 18:30N 35°54' W 005°19'0 0.0
2017-Jun-16 18:00N 35°54' W 005°19'0 0.0
2017-Jun-16 17:30N 35°54' W 005°19'0 0.0
2017-Jun-16 16:57N 35°54' W 005°19'0 0.0
2017-Jun-16 16:30N 35°54' W 005°19'0 0.0
2017-Jun-16 16:00N 35°54' W 005°19'0 0.0
2017-Jun-16 15:30N 35°54' W 005°19'0 0.0
2017-Jun-16 15:00N 35°54' W 005°19'0 0.0
2017-Jun-16 14:30N 35°54' W 005°19'0 0.0
2017-Jun-16 13:30N 35°54' W 005°19'0 0.0
2017-Jun-16 13:00N 35°54' W 005°19'0 0.0
2017-Jun-16 12:30N 35°54' W 005°19'0 0.0
2017-Jun-16 12:00N 35°54' W 005°19'0 0.0
2017-Jun-16 11:30N 35°54' W 005°19'0 0.0
2017-Jun-16 10:57N 35°54' W 005°19'0 0.0
2017-Jun-16 10:30N 35°54' W 005°19'0 0.0
2017-Jun-16 10:00N 35°54' W 005°19'0 0.0
2017-Jun-16 09:30N 35°54' W 005°19'0 0.0
2017-Jun-16 09:00N 35°54' W 005°19'0 0.0
2017-Jun-16 08:30N 35°54' W 005°19'0 0.0
2017-Jun-16 08:00N 35°54' W 005°19'0 0.0
2017-Jun-16 07:30N 35°54' W 005°19'0 0.0
2017-Jun-16 07:00N 35°54' W 005°19'0 0.0
2017-Jun-16 06:30N 35°54' W 005°19'0 0.0
2017-Jun-16 06:00N 35°54' W 005°19'0 1.0
2017-Jun-16 05:29N 35°54' W 005°19'0 0.0
2017-Jun-16 04:59N 35°54' W 005°19'0 0.0
2017-Jun-16 04:29N 35°54' W 005°19'0 0.0
2017-Jun-16 03:59N 35°54' W 005°19'0 0.0
2017-Jun-16 03:29N 35°54' W 005°19'0 0.0
2017-Jun-16 02:59N 35°54' W 005°19'0 0.0
2017-Jun-16 02:29N 35°54' W 005°19'0 0.0
2017-Jun-16 01:59N 35°54' W 005°19'0 0.0
2017-Jun-16 01:29N 35°54' W 005°19'0 0.0
2017-Jun-16 00:59N 35°54' W 005°19'0 0.0
2017-Jun-16 00:29N 35°54' W 005°19'0 0.0
2017-Jun-15 23:59N 35°54' W 005°19'0 0.0
2017-Jun-15 23:29N 35°54' W 005°19'0 0.0
2017-Jun-15 22:59N 35°54' W 005°19'0 0.0
2017-Jun-15 22:29N 35°54' W 005°19'0 0.0
2017-Jun-15 21:59N 35°54' W 005°19'0 0.0
2017-Jun-15 21:29N 35°54' W 005°19'0 0.0
2017-Jun-15 20:59N 35°54' W 005°19'0 0.0
2017-Jun-15 20:29N 35°54' W 005°19'0 0.0
2017-Jun-15 19:59N 35°54' W 005°19'0 0.0
2017-Jun-15 19:29N 35°54' W 005°19'0 0.0
2017-Jun-15 18:59N 35°54' W 005°19'0 0.0
2017-Jun-15 18:29N 35°54' W 005°19'0 0.0
2017-Jun-15 17:59N 35°54' W 005°19'0 0.0
2017-Jun-15 17:29N 35°54' W 005°19'0 0.0
2017-Jun-15 16:59N 35°54' W 005°19'0 0.0
2017-Jun-15 16:29N 35°54' W 005°19'0 0.0
2017-Jun-15 15:59N 35°54' W 005°19'0 0.0
2017-Jun-15 15:29N 35°54' W 005°19'0 0.0
2017-Jun-15 14:59N 35°54' W 005°19'0 0.0
2017-Jun-15 13:59N 35°54' W 005°19'0 0.0
2017-Jun-15 13:29N 35°54' W 005°19'0 0.0
2017-Jun-15 12:59N 35°54' W 005°19'0 0.0
2017-Jun-15 12:29N 35°54' W 005°19'0 0.0
2017-Jun-15 11:59N 35°54' W 005°19'0 0.0
2017-Jun-15 11:29N 35°54' W 005°19'0 0.0
2017-Jun-15 10:59N 35°54' W 005°19'0 0.0
2017-Jun-15 10:29N 35°54' W 005°19'0 0.0
2017-Jun-15 09:59N 35°54' W 005°19'0 0.0
2017-Jun-15 09:26N 35°54' W 005°19'0 0.0
2017-Jun-15 08:59N 35°54' W 005°19'0 0.0
2017-Jun-15 08:29N 35°54' W 005°19'0 0.0
2017-Jun-15 07:59N 35°54' W 005°19'0 0.0
2017-Jun-15 07:29N 35°54' W 005°19'0 0.0
2017-Jun-15 06:59N 35°54' W 005°19'0 0.0
2017-Jun-15 06:29N 35°54' W 005°19'0 0.0
2017-Jun-15 05:59N 35°54' W 005°19'0 0.0
2017-Jun-15 05:29N 35°54' W 005°19'0 0.0
2017-Jun-15 04:59N 35°54' W 005°19'0 0.0
2017-Jun-15 04:29N 35°54' W 005°19'0 0.0
2017-Jun-15 03:59N 35°54' W 005°19'0 0.0
2017-Jun-15 03:29N 35°54' W 005°19'0 0.0
2017-Jun-15 02:59N 35°54' W 005°19'0 0.0
2017-Jun-15 02:29N 35°54' W 005°19'0 0.0
2017-Jun-15 01:59N 35°54' W 005°19'0 0.0
2017-Jun-15 01:29N 35°54' W 005°19'0 0.0
2017-Jun-15 00:59N 35°54' W 005°19'0 0.0
2017-Jun-15 00:29N 35°54' W 005°19'0 0.0
2017-Jun-14 23:56N 35°54' W 005°19'0 0.0
2017-Jun-14 23:29N 35°54' W 005°19'0 0.0
2017-Jun-14 22:59N 35°54' W 005°19'0 0.0
2017-Jun-14 22:29N 35°54' W 005°19'0 0.0
2017-Jun-14 21:59N 35°54' W 005°19'0 0.0
2017-Jun-14 21:29N 35°54' W 005°19'0 0.0
2017-Jun-14 20:59N 35°54' W 005°19'  

Dump ship's entire track history